createdAt,value
2019-05-07T00:03:05.934Z,58.78
2019-05-07T00:07:12.897Z,58.76
2019-05-07T00:11:17.471Z,58.40
2019-05-07T00:15:23.958Z,58.14
2019-05-07T00:19:28.846Z,58.20
2019-05-07T00:23:33.736Z,58.16
2019-05-07T00:27:38.616Z,58.09
2019-05-07T00:31:43.509Z,58.25
2019-05-07T00:35:50.034Z,57.98
2019-05-07T00:39:59.350Z,58.27
2019-05-07T00:44:05.667Z,58.31
2019-05-07T00:48:12.573Z,58.46
2019-05-07T00:52:17.212Z,59.19
2019-05-07T00:56:22.526Z,59.42
2019-05-07T01:00:27.840Z,59.58
2019-05-07T01:04:33.200Z,59.73
2019-05-07T01:08:38.093Z,60.13
2019-05-07T01:12:42.974Z,60.10
2019-05-07T01:16:47.866Z,60.09
2019-05-07T01:20:53.456Z,60.32
2019-05-07T01:24:58.487Z,60.47
2019-05-07T01:29:03.559Z,60.29
2019-05-07T01:33:28.129Z,60.30
2019-05-07T01:37:33.019Z,60.56
2019-05-07T01:41:37.908Z,61.69
2019-05-07T01:45:49.402Z,62.33
2019-05-07T01:49:54.878Z,62.89
2019-05-07T01:53:58.914Z,63.55
2019-05-07T01:58:04.834Z,63.55
2019-05-07T02:02:12.138Z,63.92
2019-05-07T02:06:22.036Z,64.17
2019-05-07T02:10:28.632Z,64.69
2019-05-07T02:14:33.524Z,65.16
2019-05-07T02:18:38.408Z,65.21
2019-05-07T02:22:43.295Z,64.59
2019-05-07T02:26:48.185Z,63.99
2019-05-07T02:30:53.632Z,63.90
2019-05-07T02:34:58.638Z,63.81
2019-05-07T02:39:12.858Z,63.95
2019-05-07T02:43:18.004Z,63.92
2019-05-07T02:47:23.636Z,63.24
2019-05-07T02:51:39.109Z,63.20
2019-05-07T02:55:45.631Z,63.16
2019-05-07T02:59:54.077Z,63.07
2019-05-07T03:03:57.183Z,63.15
2019-05-07T03:08:03.345Z,62.85
2019-05-07T03:12:08.424Z,63.33
2019-05-07T03:16:13.400Z,63.66
2019-05-07T03:20:22.785Z,63.71
2019-05-07T03:24:28.143Z,63.74
2019-05-07T03:28:34.670Z,63.63
2019-05-07T03:32:47.671Z,64.51
2019-05-07T03:36:56.289Z,64.64
2019-05-07T03:40:59.727Z,64.62
2019-05-07T03:45:24.508Z,64.66
2019-05-07T03:49:36.220Z,64.68
2019-05-07T03:53:43.535Z,64.75
2019-05-07T03:57:47.699Z,64.91
2019-05-07T04:01:53.845Z,64.96
2019-05-07T04:05:58.853Z,64.37
2019-05-07T04:10:09.731Z,64.16
2019-05-07T04:14:13.638Z,64.36
2019-05-07T04:18:18.730Z,64.50
2019-05-07T04:22:28.614Z,64.31
2019-05-07T04:26:35.052Z,64.34
2019-05-07T04:30:43.479Z,64.13
2019-05-07T04:34:55.459Z,63.95
2019-05-07T04:39:03.022Z,64.35
2019-05-07T04:43:08.407Z,64.20
2019-05-07T04:47:24.104Z,64.52
2019-05-07T04:51:23.233Z,64.42
2019-05-07T04:55:28.286Z,64.16
2019-05-07T04:59:33.258Z,63.88
2019-05-07T05:03:39.351Z,63.62
2019-05-07T05:07:44.403Z,64.09
2019-05-07T05:11:49.326Z,63.93
2019-05-07T05:15:54.216Z,63.49
2019-05-07T05:20:01.386Z,63.29
2019-05-07T05:24:07.327Z,64.67
2019-05-07T05:28:12.893Z,67.23
2019-05-07T05:32:17.784Z,63.61
2019-05-07T05:36:22.684Z,62.56
2019-05-07T05:40:28.641Z,63.74
2019-05-07T05:44:34.397Z,62.46
2019-05-07T05:48:39.289Z,61.65
2019-05-07T05:52:45.820Z,61.15
2019-05-07T05:56:56.746Z,60.80
2019-05-07T06:01:19.845Z,60.85
2019-05-07T06:05:38.398Z,60.86
2019-05-07T06:09:44.928Z,59.65
2019-05-07T06:13:57.505Z,58.82
2019-05-07T06:18:20.507Z,57.69
2019-05-07T06:22:22.319Z,56.81
2019-05-07T06:26:27.356Z,55.17
2019-05-07T06:30:33.845Z,53.48
2019-05-07T06:34:41.744Z,52.60
2019-05-07T06:38:47.071Z,51.28
2019-05-07T06:42:56.568Z,51.18
2019-05-07T06:47:02.431Z,51.64
2019-05-07T06:51:07.541Z,50.16
2019-05-07T06:55:12.776Z,49.07
2019-05-07T06:59:25.732Z,47.34
2019-05-07T07:03:38.199Z,46.70
2019-05-07T07:07:47.563Z,45.92
2019-05-07T07:11:57.014Z,44.41
2019-05-07T07:16:02.119Z,44.38
2019-05-07T07:20:07.220Z,44.28
2019-05-07T07:24:12.776Z,44.46
2019-05-07T07:28:17.793Z,43.14
2019-05-07T07:32:24.318Z,42.69
2019-05-07T07:36:32.054Z,42.25
2019-05-07T07:40:38.682Z,42.26
2019-05-07T07:44:43.648Z,41.29
2019-05-07T07:49:03.164Z,40.17
2019-05-07T07:52:55.135Z,39.42
2019-05-07T07:57:07.405Z,40.45
2019-05-07T08:01:13.962Z,41.91
2019-05-07T08:05:18.854Z,41.32
2019-05-07T08:09:25.827Z,41.45
2019-05-07T08:13:32.353Z,41.74
2019-05-07T08:17:36.941Z,42.43
2019-05-07T08:21:42.137Z,42.87
2019-05-07T08:25:52.508Z,43.15
2019-05-07T08:29:56.805Z,42.64
2019-05-07T08:34:03.338Z,43.79
2019-05-07T08:38:08.238Z,43.52
2019-05-07T08:42:13.143Z,44.44
2019-05-07T08:46:35.734Z,44.23
2019-05-07T08:50:41.944Z,44.22
2019-05-07T08:54:46.820Z,44.70
2019-05-07T08:58:52.661Z,45.86
2019-05-07T09:02:57.663Z,46.50
2019-05-07T09:07:02.961Z,46.44
2019-05-07T09:11:07.884Z,46.38
2019-05-07T09:15:13.329Z,46.16
2019-05-07T09:19:18.218Z,46.30
2019-05-07T09:23:23.115Z,46.03
2019-05-07T09:27:32.833Z,46.67
2019-05-07T09:31:45.370Z,46.17
2019-05-07T09:35:52.821Z,46.39
2019-05-07T09:39:58.588Z,45.45
2019-05-07T09:44:03.486Z,46.59
2019-05-07T09:48:08.382Z,45.88
2019-05-07T09:52:13.283Z,44.54
2019-05-07T09:56:18.184Z,44.24
2019-05-07T10:00:24.804Z,43.95
2019-05-07T10:04:29.696Z,43.49
2019-05-07T10:08:34.663Z,43.88
2019-05-07T10:12:44.136Z,44.43
2019-05-07T10:16:56.701Z,45.02
2019-05-07T10:21:02.516Z,44.96
2019-05-07T10:25:08.276Z,44.94
2019-05-07T10:29:13.165Z,45.01
2019-05-07T10:33:18.432Z,44.75
2019-05-07T10:37:23.407Z,44.90
2019-05-07T10:41:28.366Z,44.44
2019-05-07T10:45:42.139Z,44.30
2019-05-07T10:49:48.801Z,44.15
2019-05-07T10:53:53.703Z,44.11
2019-05-07T10:57:58.598Z,41.80
2019-05-07T11:02:05.192Z,41.63
2019-05-07T11:06:11.976Z,41.63
2019-05-07T11:10:17.326Z,39.64
2019-05-07T11:14:22.289Z,39.78
2019-05-07T11:18:32.281Z,38.76
2019-05-07T11:22:37.391Z,40.63
2019-05-07T11:26:42.359Z,40.63
2019-05-07T11:30:47.258Z,39.38
2019-05-07T11:34:52.854Z,39.15
2019-05-07T11:38:58.757Z,39.41
2019-05-07T11:43:14.055Z,37.48
2019-05-07T11:47:26.701Z,38.32
2019-05-07T11:51:33.581Z,38.76
2019-05-07T11:55:38.518Z,39.03
2019-05-07T11:59:43.422Z,38.59
2019-05-07T12:03:48.307Z,38.97
2019-05-07T12:07:53.202Z,39.12
2019-05-07T12:11:58.101Z,39.36
2019-05-07T12:16:03.245Z,39.36
2019-05-07T12:20:08.420Z,39.07
2019-05-07T12:24:16.266Z,38.78
2019-05-07T12:28:22.288Z,38.97
2019-05-07T12:32:28.205Z,38.15
2019-05-07T12:36:33.115Z,36.80
2019-05-07T12:40:38.007Z,36.80
2019-05-07T12:44:43.165Z,37.43
2019-05-07T12:48:48.059Z,36.06
2019-05-07T12:52:57.762Z,36.63
2019-05-07T12:57:02.668Z,37.10
2019-05-07T13:01:25.654Z,37.67
2019-05-07T13:05:30.562Z,37.93
2019-05-07T13:09:35.448Z,37.74
2019-05-07T13:13:42.354Z,37.09
2019-05-07T13:17:47.288Z,37.34
2019-05-07T13:21:52.260Z,36.63
2019-05-07T13:25:57.157Z,36.88
2019-05-07T13:30:02.772Z,36.01
2019-05-07T13:34:08.739Z,35.76
2019-05-07T13:38:15.427Z,35.72
2019-05-07T13:42:22.029Z,35.54
2019-05-07T13:46:28.383Z,36.29
2019-05-07T13:50:33.259Z,33.61
2019-05-07T13:54:38.228Z,34.30
2019-05-07T13:58:43.195Z,33.56
2019-05-07T14:02:49.159Z,32.53
2019-05-07T14:06:54.057Z,33.39
2019-05-07T14:10:58.949Z,33.94
2019-05-07T14:15:04.187Z,34.35
2019-05-07T14:19:09.356Z,33.96
2019-05-07T14:23:14.436Z,33.36
2019-05-07T14:27:19.433Z,33.81
2019-05-07T14:31:24.321Z,33.50
2019-05-07T14:35:32.217Z,33.89
2019-05-07T14:39:37.230Z,34.19
2019-05-07T14:43:43.771Z,35.15
2019-05-07T14:47:48.735Z,34.66
2019-05-07T14:51:54.123Z,34.91
2019-05-07T14:55:59.176Z,34.73
2019-05-07T15:00:06.617Z,34.78
2019-05-07T15:04:12.894Z,34.84
2019-05-07T15:08:17.869Z,34.75
2019-05-07T15:12:23.456Z,34.51
2019-05-07T15:16:28.611Z,34.26
2019-05-07T15:20:34.384Z,34.72
2019-05-07T15:24:41.768Z,33.69
2019-05-07T15:28:48.712Z,33.62
2019-05-07T15:32:53.664Z,33.96
2019-05-07T15:36:58.636Z,33.38
2019-05-07T15:41:04.276Z,33.21
2019-05-07T15:45:09.543Z,32.82
2019-05-07T15:49:14.440Z,32.87
2019-05-07T15:53:33.692Z,33.36
2019-05-07T15:57:38.744Z,33.68
2019-05-07T16:01:43.565Z,34.00
2019-05-07T16:05:48.463Z,33.79
2019-05-07T16:09:53.355Z,33.66
2019-05-07T16:14:05.817Z,34.44
2019-05-07T16:18:14.899Z,34.83
2019-05-07T16:22:22.211Z,34.57
2019-05-07T16:26:27.214Z,34.70
2019-05-07T16:30:32.476Z,34.60
2019-05-07T16:34:37.485Z,35.08
2019-05-07T16:38:42.377Z,34.78
2019-05-07T16:42:47.277Z,35.37
2019-05-07T16:46:53.467Z,34.61
2019-05-07T16:50:58.451Z,35.11
2019-05-07T16:55:04.013Z,34.56
2019-05-07T16:59:09.013Z,34.68
2019-05-07T17:03:15.532Z,36.52
2019-05-07T17:07:22.406Z,37.96
2019-05-07T17:11:27.036Z,39.24
2019-05-07T17:15:33.559Z,39.24
2019-05-07T17:19:38.460Z,38.93
2019-05-07T17:23:44.767Z,39.13
2019-05-07T17:27:49.729Z,39.51
2019-05-07T17:31:54.619Z,39.73
2019-05-07T17:35:59.506Z,39.17
2019-05-07T17:40:06.843Z,39.65
2019-05-07T17:44:12.024Z,40.30
2019-05-07T17:48:16.989Z,40.81
2019-05-07T17:52:22.881Z,41.60
2019-05-07T17:56:27.736Z,41.85
2019-05-07T18:00:32.988Z,42.61
2019-05-07T18:04:50.541Z,43.09
2019-05-07T18:08:45.890Z,43.52
2019-05-07T18:12:53.319Z,44.18
2019-05-07T18:16:59.007Z,44.72
2019-05-07T18:21:05.194Z,45.17
2019-05-07T18:25:12.395Z,45.41
2019-05-07T18:29:17.434Z,45.90
2019-05-07T18:33:23.980Z,46.10
2019-05-07T18:37:28.866Z,46.38
2019-05-07T18:41:33.768Z,46.72
2019-05-07T18:45:38.661Z,46.57
2019-05-07T18:49:44.856Z,46.71
2019-05-07T18:53:51.932Z,46.83
2019-05-07T18:57:56.975Z,47.91
2019-05-07T19:02:02.344Z,48.23
2019-05-07T19:06:08.459Z,48.61
2019-05-07T19:10:13.414Z,48.65
2019-05-07T19:14:18.327Z,48.62
2019-05-07T19:18:23.216Z,49.12
2019-05-07T19:22:29.178Z,50.18
2019-05-07T19:26:34.075Z,50.16
2019-05-07T19:30:38.972Z,50.29
2019-05-07T19:34:43.870Z,50.68
2019-05-07T19:38:48.761Z,51.31
2019-05-07T19:42:53.658Z,52.15
2019-05-07T19:46:58.542Z,52.55
2019-05-07T19:51:03.448Z,52.58
2019-05-07T19:55:08.504Z,52.46
2019-05-07T19:59:13.381Z,53.02
2019-05-07T20:03:18.845Z,53.75
2019-05-07T20:07:23.746Z,54.23
2019-05-07T20:11:31.968Z,54.19
2019-05-07T20:15:38.568Z,54.97
2019-05-07T20:19:43.520Z,55.32
2019-05-07T20:23:48.413Z,55.39
2019-05-07T20:27:53.298Z,56.21
2019-05-07T20:31:58.191Z,57.04
2019-05-07T20:36:03.078Z,56.86
2019-05-07T20:40:08.095Z,57.33
2019-05-07T20:44:13.057Z,57.86
2019-05-07T20:48:17.941Z,58.28
2019-05-07T20:52:23.081Z,58.16
2019-05-07T20:56:42.070Z,57.91
2019-05-07T21:00:47.394Z,57.93
2019-05-07T21:04:52.280Z,58.03
2019-05-07T21:08:57.168Z,58.55
2019-05-07T21:13:02.055Z,58.46
2019-05-07T21:17:06.952Z,59.37
2019-05-07T21:21:12.485Z,59.76
2019-05-07T21:25:17.584Z,60.14
2019-05-07T21:29:22.472Z,60.21
2019-05-07T21:33:27.365Z,60.69
2019-05-07T21:37:32.488Z,61.12
2019-05-07T21:41:37.411Z,61.58
2019-05-07T21:45:42.406Z,61.75
2019-05-07T21:49:47.338Z,61.67
2019-05-07T21:53:53.865Z,62.06
2019-05-07T21:58:02.342Z,62.51
2019-05-07T22:02:17.944Z,62.56
2019-05-07T22:06:22.947Z,62.66
2019-05-07T22:10:27.790Z,62.55
2019-05-07T22:14:32.950Z,62.76
2019-05-07T22:18:37.921Z,62.12
2019-05-07T22:22:42.866Z,62.19
2019-05-07T22:26:47.689Z,61.59
2019-05-07T22:30:54.215Z,61.90
2019-05-07T22:35:03.847Z,62.32
2019-05-07T22:39:12.480Z,62.35
2019-05-07T22:43:18.511Z,62.92
2019-05-07T22:47:23.473Z,63.07
2019-05-07T22:51:28.359Z,63.18
2019-05-07T22:55:34.215Z,63.80
2019-05-07T22:59:39.107Z,63.97
2019-05-07T23:03:43.991Z,63.48
2019-05-07T23:07:48.883Z,63.72
2019-05-07T23:11:54.978Z,64.29
2019-05-07T23:16:00.099Z,64.66
2019-05-07T23:20:06.160Z,64.88
2019-05-07T23:24:11.038Z,64.81
2019-05-07T23:28:15.930Z,64.07
2019-05-07T23:32:22.177Z,64.38
2019-05-07T23:36:27.090Z,64.39
2019-05-07T23:40:36.268Z,64.59
2019-05-07T23:44:42.009Z,64.53
2019-05-07T23:48:47.010Z,64.66
2019-05-07T23:52:52.710Z,64.75
2019-05-07T23:57:05.822Z,64.76
